Aliquippa, PA (15001)

10:20 AM EDT on April 27, 2015 (GMT -0400)
Crestmont Village - Hopewell Twp | | Change Station
CLOSE
Current Station
Personal Weather Station
Location: Aliquippa, PA
Elevation: 1192 ft
Nearby Weather Stations

Elev 1192 ft 40.59 °N, 80.27 °W | Updated 11 minutes ago

Overcast
Overcast
45.7 °F
Feels Like 40 °F
N
10.9
Wind Variable Wind from NW

Today
High -- | Low -- °F
--% Chance of Precip.
Yesterday
High -- | Low -- °F
Precip. -- in
6:25 AM 8:12 PM
Waxing Gibbous, 65% visible
Pressure 29.90 in
Visibility 10.0 miles
Clouds Scattered Clouds 2800 ft
Mostly Cloudy 7000 ft
Mostly Cloudy 25000 ft
Windchill 40 °F
Dew Point 37 °F
Humidity 72%
Rainfall 0.00 in
Snow Depth Not available.
UV 3 out of 12
Pollen 9.70 out of 12
Air Quality Not available.
Flu Activity Sporadic
METAR KPIT 271351Z 34010KT 10SM SCT028 BKN070 BKN250 07/01 A2986 RMK AO2 SLP123 T00670011

More Conditions Fewer Conditions

Pressure 29.90 in
Visibility 10.0 miles
Clouds Scattered Clouds 2800 ft
Mostly Cloudy 7000 ft
Mostly Cloudy 25000 ft
Windchill 40 °F
Dew Point 37 °F
Humidity 72%
Rainfall 0.00 in
Snow Depth Not available.
UV 3 out of 12
Pollen 9.70 out of 12
Air Quality Not available.
Flu Activity Sporadic
METAR KPIT 271351Z 34010KT 10SM SCT028 BKN070 BKN250 07/01 A2986 RMK AO2 SLP123 T00670011

More Conditions Fewer Conditions

10-Day Weather Forecast

Almanac

Astronomy

Apr. 27, 2015 Rise Set
Actual Time
Civil Twilight
Nautical Twilight
Astronomical Twilight
Moon
Length of Visible Light
Length of Day
Tomorrow will be .
, % of the Moon is Illuminated

Today's Extremes

State Highs State Lows

Community

WunderPhotos

Upload Photos

1,817,319 photos uploaded!

WunderBlogs® & News

Nearby

Air Quality

  Air Quality AQ Index Pollutant
Not available.

Snow Depth

Station Depth Elevation

Earthquake Activity

City Distance Mag. Time & Date
Minimum magnitude displayed is 2.5.

Coastal Water Temperatures

Place Temperature

Stations

Nearby Weather Stations

Station Location Temp. Windchill Dew Point Humidity Wind Precip. Elev Updated Type